createdAt,value
2022-10-11T00:00:05.687Z,98786.00
2022-10-11T00:00:14.233Z,98783.00
2022-10-11T00:00:25.676Z,98784.00
2022-10-11T00:00:34.228Z,98786.00
2022-10-11T00:00:45.673Z,98786.00
2022-10-11T00:00:56.800Z,98788.00
2022-10-11T00:01:06.762Z,98788.00
2022-10-11T00:01:16.302Z,98788.00
2022-10-11T00:01:25.317Z,98788.00
2022-10-11T00:01:36.818Z,98790.00
2022-10-11T00:01:45.332Z,98788.00
2022-10-11T00:01:55.283Z,98790.00
2022-10-11T00:02:05.276Z,98790.00
2022-10-11T00:02:15.284Z,98790.00
2022-10-11T00:02:26.592Z,98790.00
2022-10-11T00:02:35.254Z,98792.00
2022-10-11T00:02:45.287Z,98790.00
2022-10-11T00:02:55.293Z,98790.00
2022-10-11T00:03:06.723Z,98788.00
2022-10-11T00:03:15.264Z,98790.00
2022-10-11T00:03:26.704Z,98790.00
2022-10-11T00:03:36.205Z,98790.00
2022-10-11T00:03:45.254Z,98792.00
2022-10-11T00:03:55.312Z,98792.00
2022-10-11T00:04:06.695Z,98792.00
2022-10-11T00:04:16.204Z,98794.00
2022-10-11T00:04:25.414Z,98794.00
2022-10-11T00:04:35.241Z,98794.00
2022-10-11T00:04:46.704Z,98794.00
2022-10-11T00:04:56.704Z,98792.00
2022-10-11T00:05:05.455Z,98794.00
2022-10-11T00:05:15.286Z,98792.00
2022-10-11T00:05:26.694Z,98792.00
2022-10-11T00:05:36.195Z,98792.00
2022-10-11T00:05:45.485Z,98792.00
2022-10-11T00:05:55.265Z,98794.00
2022-10-11T00:06:07.307Z,98794.00
2022-10-11T00:06:15.447Z,98794.00
2022-10-11T00:06:25.556Z,98796.00
2022-10-11T00:06:36.785Z,98798.00
2022-10-11T00:06:46.806Z,98794.00
2022-10-11T00:06:55.544Z,98792.00
2022-10-11T00:07:05.561Z,98798.00
2022-10-11T00:07:16.785Z,98798.00
2022-10-11T00:07:26.815Z,98798.00
2022-10-11T00:07:35.566Z,98800.00
2022-10-11T00:07:45.325Z,98800.00
2022-10-11T00:07:56.804Z,98798.00
2022-10-11T00:08:06.831Z,98802.00
2022-10-11T00:08:15.336Z,98800.00
2022-10-11T00:08:26.797Z,98802.00
2022-10-11T00:08:36.806Z,98802.00
2022-10-11T00:08:46.837Z,98800.00
2022-10-11T00:08:55.647Z,98804.00
2022-10-11T00:09:05.686Z,98802.00
2022-10-11T00:09:15.340Z,98804.00
2022-10-11T00:09:25.356Z,98804.00
2022-10-11T00:09:36.766Z,98804.00
2022-10-11T00:09:45.326Z,98806.00
2022-10-11T00:09:55.453Z,98804.00
2022-10-11T00:10:05.327Z,98804.00
2022-10-11T00:10:15.325Z,98804.00
2022-10-11T00:10:26.815Z,98806.00
2022-10-11T00:10:35.327Z,98806.00
2022-10-11T00:10:46.267Z,98806.00
2022-10-11T00:10:56.776Z,98804.00
2022-10-11T00:11:05.486Z,98802.00
2022-10-11T00:11:16.216Z,98808.00
2022-10-11T00:11:25.327Z,98808.00
2022-10-11T00:11:36.276Z,98808.00
2022-10-11T00:11:45.416Z,98810.00
2022-10-11T00:11:56.756Z,98808.00
2022-10-11T00:12:05.336Z,98808.00
2022-10-11T00:12:15.336Z,98808.00
2022-10-11T00:12:27.255Z,98808.00
2022-10-11T00:12:35.327Z,98810.00
2022-10-11T00:12:45.327Z,98812.00
2022-10-11T00:12:56.777Z,98812.00
2022-10-11T00:13:05.307Z,98812.00
2022-10-11T00:13:16.277Z,98810.00
2022-10-11T00:13:25.307Z,98810.00
2022-10-11T00:13:35.318Z,98812.00
2022-10-11T00:13:46.229Z,98814.00
2022-10-11T00:13:55.307Z,98814.00
2022-10-11T00:14:06.759Z,98814.00
2022-10-11T00:14:15.306Z,98814.00
2022-10-11T00:14:25.314Z,98816.00
2022-10-11T00:14:35.297Z,98814.00
2022-10-11T00:14:46.174Z,98814.00
2022-10-11T00:14:56.738Z,98820.00
2022-10-11T00:15:06.740Z,98812.00
2022-10-11T00:15:15.287Z,98812.00
2022-10-11T00:15:25.288Z,98814.00
2022-10-11T00:15:35.308Z,98816.00
2022-10-11T00:15:45.298Z,98818.00
2022-10-11T00:15:55.275Z,98818.00
2022-10-11T00:16:05.587Z,98818.00
2022-10-11T00:16:16.746Z,98818.00
2022-10-11T00:16:26.229Z,98822.00
2022-10-11T00:16:36.738Z,98820.00
2022-10-11T00:16:45.259Z,98820.00
2022-10-11T00:16:55.327Z,98822.00
2022-10-11T00:17:06.767Z,98822.00
2022-10-11T00:17:16.148Z,98822.00
2022-10-11T00:17:25.287Z,98822.00
2022-10-11T00:17:35.302Z,98820.00
2022-10-11T00:17:46.728Z,98822.00
2022-10-11T00:17:55.310Z,98822.00
2022-10-11T00:18:05.623Z,98822.00
2022-10-11T00:18:16.725Z,98822.00
2022-10-11T00:18:26.713Z,98822.00
2022-10-11T00:18:35.270Z,98822.00
2022-10-11T00:18:46.728Z,98824.00
2022-10-11T00:18:56.219Z,98824.00
2022-10-11T00:19:05.344Z,98824.00
2022-10-11T00:19:15.252Z,98822.00
2022-10-11T00:19:25.289Z,98822.00
2022-10-11T00:19:35.286Z,98824.00
2022-10-11T00:19:46.168Z,98822.00
2022-10-11T00:19:56.708Z,98826.00
2022-10-11T00:20:06.712Z,98824.00
2022-10-11T00:20:15.236Z,98824.00
2022-10-11T00:20:25.288Z,98824.00
2022-10-11T00:20:36.091Z,98826.00
2022-10-11T00:20:46.739Z,98824.00
2022-10-11T00:20:55.250Z,98824.00
2022-10-11T00:21:05.259Z,98824.00
2022-10-11T00:21:15.240Z,98824.00
2022-10-11T00:21:26.749Z,98826.00
2022-10-11T00:21:36.190Z,98824.00
2022-10-11T00:21:45.249Z,98828.00
2022-10-11T00:21:55.259Z,98824.00
2022-10-11T00:22:06.201Z,98822.00
2022-10-11T00:22:16.698Z,98826.00
2022-10-11T00:22:25.230Z,98828.00
2022-10-11T00:22:35.231Z,98826.00
2022-10-11T00:22:45.240Z,98826.00
2022-10-11T00:22:55.271Z,98830.00
2022-10-11T00:23:05.241Z,98831.00
2022-10-11T00:23:16.714Z,98833.00
2022-10-11T00:23:26.773Z,98831.00
2022-10-11T00:23:36.673Z,98831.00
2022-10-11T00:23:46.038Z,98830.00
2022-10-11T00:23:55.247Z,98831.00
2022-10-11T00:24:05.270Z,98828.00
2022-10-11T00:24:15.208Z,98831.00
2022-10-11T00:24:26.719Z,98831.00
2022-10-11T00:24:35.480Z,98828.00
2022-10-11T00:24:45.210Z,98830.00
2022-10-11T00:24:56.672Z,98828.00
2022-10-11T00:25:05.220Z,98828.00
2022-10-11T00:25:15.269Z,98830.00
2022-10-11T00:25:25.454Z,98828.00
2022-10-11T00:25:35.492Z,98828.00
2022-10-11T00:25:45.250Z,98830.00
2022-10-11T00:25:55.475Z,98822.00
2022-10-11T00:26:05.431Z,98828.00
2022-10-11T00:26:15.249Z,98830.00
2022-10-11T00:26:25.221Z,98830.00
2022-10-11T00:26:35.230Z,98828.00
2022-10-11T00:26:46.930Z,98830.00
2022-10-11T00:26:55.460Z,98831.00
2022-10-11T00:27:06.653Z,98830.00
2022-10-11T00:27:15.540Z,98828.00
2022-10-11T00:27:25.463Z,98828.00
2022-10-11T00:27:35.498Z,98830.00
2022-10-11T00:27:45.540Z,98831.00
2022-10-11T00:27:55.569Z,98830.00
2022-10-11T00:28:05.501Z,98828.00
2022-10-11T00:28:16.701Z,98828.00
2022-10-11T00:28:25.598Z,98828.00
2022-10-11T00:28:35.557Z,98828.00
2022-10-11T00:28:46.714Z,98826.00
2022-10-11T00:28:55.275Z,98830.00
2022-10-11T00:29:06.635Z,98830.00
2022-10-11T00:29:16.171Z,98828.00
2022-10-11T00:29:25.221Z,98828.00
2022-10-11T00:29:35.190Z,98830.00
2022-10-11T00:29:45.202Z,98828.00
2022-10-11T00:29:56.641Z,98828.00
2022-10-11T00:30:06.648Z,98828.00
2022-10-11T00:30:16.211Z,98828.00
2022-10-11T00:30:26.631Z,98830.00
2022-10-11T00:30:35.252Z,98833.00
2022-10-11T00:30:45.182Z,98830.00
2022-10-11T00:30:55.372Z,98826.00
2022-10-11T00:31:07.168Z,98830.00
2022-10-11T00:31:15.211Z,98830.00
2022-10-11T00:31:26.071Z,98830.00
2022-10-11T00:31:36.699Z,98828.00
2022-10-11T00:31:45.169Z,98831.00
2022-10-11T00:31:55.199Z,98833.00
2022-10-11T00:32:05.253Z,98830.00
2022-10-11T00:32:15.213Z,98831.00
2022-10-11T00:32:26.623Z,98831.00
2022-10-11T00:32:35.702Z,98833.00
2022-10-11T00:32:45.181Z,98833.00
2022-10-11T00:32:55.292Z,98833.00
2022-10-11T00:33:05.162Z,98833.00
2022-10-11T00:33:15.187Z,98835.00
2022-10-11T00:33:26.654Z,98835.00
2022-10-11T00:33:36.633Z,98830.00
2022-10-11T00:33:45.172Z,98831.00
2022-10-11T00:33:55.179Z,98831.00
2022-10-11T00:34:06.645Z,98835.00
2022-10-11T00:34:16.622Z,98833.00
2022-10-11T00:34:26.623Z,98833.00
2022-10-11T00:34:35.172Z,98833.00
2022-10-11T00:34:45.266Z,98835.00
2022-10-11T00:34:55.199Z,98835.00
2022-10-11T00:35:05.224Z,98833.00
2022-10-11T00:35:16.633Z,98833.00
2022-10-11T00:35:26.612Z,98833.00
2022-10-11T00:35:36.094Z,98837.00
2022-10-11T00:35:46.196Z,98835.00
2022-10-11T00:35:55.153Z,98837.00
2022-10-11T00:36:07.099Z,98835.00
2022-10-11T00:36:16.724Z,98837.00
2022-10-11T00:36:27.038Z,98835.00
2022-10-11T00:36:35.280Z,98837.00
2022-10-11T00:36:45.281Z,98837.00
2022-10-11T00:36:56.740Z,98837.00
2022-10-11T00:37:05.292Z,98837.00
2022-10-11T00:37:15.283Z,98837.00
2022-10-11T00:37:25.283Z,98839.00
2022-10-11T00:37:36.724Z,98841.00
2022-10-11T00:37:46.722Z,98839.00
2022-10-11T00:37:56.757Z,98841.00
2022-10-11T00:38:05.266Z,98841.00
2022-10-11T00:38:16.712Z,98839.00
2022-10-11T00:38:25.255Z,98845.00
2022-10-11T00:38:35.267Z,98839.00
2022-10-11T00:38:46.704Z,98841.00
2022-10-11T00:38:55.401Z,98843.00
2022-10-11T00:39:06.684Z,98847.00
2022-10-11T00:39:15.266Z,98839.00
2022-10-11T00:39:25.544Z,98839.00
2022-10-11T00:39:36.694Z,98843.00
2022-10-11T00:39:45.294Z,98843.00
2022-10-11T00:39:55.265Z,98847.00
2022-10-11T00:40:06.716Z,98843.00
2022-10-11T00:40:15.243Z,98847.00
2022-10-11T00:40:25.244Z,98845.00
2022-10-11T00:40:35.253Z,98843.00
2022-10-11T00:40:45.253Z,98847.00
2022-10-11T00:40:55.283Z,98841.00
2022-10-11T00:41:05.595Z,98841.00
2022-10-11T00:41:15.251Z,98845.00
2022-10-11T00:41:26.694Z,98839.00
2022-10-11T00:41:36.739Z,98843.00
2022-10-11T00:41:46.202Z,98845.00
2022-10-11T00:41:56.674Z,98843.00
2022-10-11T00:42:05.225Z,98843.00
2022-10-11T00:42:16.674Z,98845.00
2022-10-11T00:42:26.673Z,98841.00
2022-10-11T00:42:36.685Z,98845.00
2022-10-11T00:42:46.684Z,98843.00
2022-10-11T00:42:56.695Z,98845.00
2022-10-11T00:43:05.253Z,98839.00
2022-10-11T00:43:15.205Z,98841.00
2022-10-11T00:43:25.235Z,98841.00
2022-10-11T00:43:36.685Z,98839.00
2022-10-11T00:43:46.668Z,98841.00
2022-10-11T00:43:56.725Z,98841.00
2022-10-11T00:44:05.215Z,98839.00
2022-10-11T00:44:15.284Z,98841.00
2022-10-11T00:44:26.676Z,98843.00
2022-10-11T00:44:35.824Z,98841.00
2022-10-11T00:44:45.225Z,98843.00
2022-10-11T00:44:56.674Z,98841.00
2022-10-11T00:45:05.207Z,98841.00
2022-10-11T00:45:15.355Z,98841.00
2022-10-11T00:45:25.196Z,98841.00
2022-10-11T00:45:35.216Z,98839.00
2022-10-11T00:45:45.216Z,98841.00
2022-10-11T00:45:55.215Z,98843.00
2022-10-11T00:46:07.204Z,98843.00
2022-10-11T00:46:16.695Z,98843.00
2022-10-11T00:46:26.708Z,98839.00
2022-10-11T00:46:35.416Z,98839.00
2022-10-11T00:46:45.255Z,98841.00
2022-10-11T00:46:56.099Z,98841.00
2022-10-11T00:47:05.945Z,98841.00
2022-10-11T00:47:16.187Z,98839.00
2022-10-11T00:47:26.091Z,98841.00
2022-10-11T00:47:35.267Z,98845.00
2022-10-11T00:47:45.318Z,98841.00
2022-10-11T00:47:55.247Z,98841.00
2022-10-11T00:48:05.257Z,98841.00
2022-10-11T00:48:15.260Z,98841.00
2022-10-11T00:48:25.256Z,98845.00
2022-10-11T00:48:35.742Z,98843.00
2022-10-11T00:48:46.686Z,98841.00
2022-10-11T00:48:55.260Z,98843.00
2022-10-11T00:49:06.171Z,98845.00
2022-10-11T00:49:16.688Z,98843.00
2022-10-11T00:49:25.267Z,98843.00
2022-10-11T00:49:36.697Z,98845.00
2022-10-11T00:49:46.689Z,98847.00
2022-10-11T00:49:55.916Z,98847.00
2022-10-11T00:50:05.863Z,98845.00
2022-10-11T00:50:16.686Z,98845.00
2022-10-11T00:50:25.228Z,98845.00
2022-10-11T00:50:36.694Z,98849.00
2022-10-11T00:50:46.697Z,98845.00
2022-10-11T00:50:56.177Z,98847.00
2022-10-11T00:51:07.122Z,98845.00
2022-10-11T00:51:16.218Z,98847.00
2022-10-11T00:51:25.246Z,98845.00
2022-10-11T00:51:36.708Z,98849.00
2022-10-11T00:51:46.678Z,98847.00
2022-10-11T00:51:55.248Z,98851.00
2022-10-11T00:52:05.237Z,98847.00
2022-10-11T00:52:15.245Z,98851.00
2022-10-11T00:52:25.238Z,98845.00
2022-10-11T00:52:36.679Z,98847.00
2022-10-11T00:52:45.248Z,98847.00
2022-10-11T00:52:55.235Z,98851.00
2022-10-11T00:53:06.701Z,98849.00
2022-10-11T00:53:16.177Z,98849.00
2022-10-11T00:53:26.683Z,98853.00
2022-10-11T00:53:35.227Z,98853.00
2022-10-11T00:53:45.217Z,98853.00
2022-10-11T00:53:55.267Z,98857.00
2022-10-11T00:54:05.234Z,98853.00
2022-10-11T00:54:15.197Z,98853.00
2022-10-11T00:54:25.228Z,98853.00
2022-10-11T00:54:35.288Z,98851.00
2022-10-11T00:54:45.213Z,98851.00
2022-10-11T00:54:56.122Z,98849.00
2022-10-11T00:55:05.278Z,98853.00
2022-10-11T00:55:15.210Z,98853.00
2022-10-11T00:55:25.198Z,98853.00
2022-10-11T00:55:35.278Z,98855.00
2022-10-11T00:55:46.653Z,98855.00
2022-10-11T00:55:55.208Z,98855.00
2022-10-11T00:56:05.545Z,98853.00
2022-10-11T00:56:15.211Z,98853.00
2022-10-11T00:56:26.698Z,98857.00
2022-10-11T00:56:35.218Z,98857.00
2022-10-11T00:56:45.198Z,98857.00
2022-10-11T00:56:55.363Z,98857.00
2022-10-11T00:57:05.401Z,98855.00
2022-10-11T00:57:15.429Z,98857.00
2022-10-11T00:57:25.365Z,98859.00
2022-10-11T00:57:35.188Z,98863.00
2022-10-11T00:57:45.459Z,98859.00
2022-10-11T00:57:55.362Z,98859.00
2022-10-11T00:58:06.656Z,98859.00
2022-10-11T00:58:15.325Z,98859.00
2022-10-11T00:58:25.178Z,98859.00
2022-10-11T00:58:35.398Z,98857.00
2022-10-11T00:58:45.177Z,98857.00
2022-10-11T00:58:55.257Z,98859.00
2022-10-11T00:59:06.629Z,98857.00
2022-10-11T00:59:16.662Z,98859.00
2022-10-11T00:59:25.218Z,98859.00
2022-10-11T00:59:35.180Z,98861.00
2022-10-11T00:59:45.188Z,98861.00
2022-10-11T00:59:56.668Z,98857.00
2022-10-11T01:00:06.620Z,98859.00
2022-10-11T01:00:16.650Z,98859.00
2022-10-11T01:00:26.631Z,98861.00
2022-10-11T01:00:35.190Z,98859.00
2022-10-11T01:00:45.189Z,98857.00
2022-10-11T01:00:56.665Z,98861.00
2022-10-11T01:01:06.703Z,98861.00
2022-10-11T01:01:15.258Z,98863.00
2022-10-11T01:01:26.766Z,98863.00
2022-10-11T01:01:36.655Z,98859.00
2022-10-11T01:01:46.156Z,98861.00
2022-10-11T01:01:56.621Z,98859.00
2022-10-11T01:02:06.603Z,98859.00
2022-10-11T01:02:16.137Z,98859.00
2022-10-11T01:02:25.210Z,98861.00
2022-10-11T01:02:35.187Z,98859.00
2022-10-11T01:02:45.151Z,98861.00
2022-10-11T01:02:55.212Z,98865.00
2022-10-11T01:03:05.139Z,98857.00
2022-10-11T01:03:16.611Z,98861.00
2022-10-11T01:03:25.153Z,98865.00
2022-10-11T01:03:35.160Z,98861.00
2022-10-11T01:03:45.160Z,98859.00
2022-10-11T01:03:55.407Z,98861.00
2022-10-11T01:04:06.580Z,98861.00
2022-10-11T01:04:16.594Z,98863.00
2022-10-11T01:04:26.190Z,98861.00
2022-10-11T01:04:36.594Z,98863.00
2022-10-11T01:04:45.141Z,98861.00
2022-10-11T01:05:18.024Z,98861.00
2022-10-11T01:05:28.837Z,98861.00
2022-10-11T01:05:29.165Z,98861.00
2022-10-11T01:05:29.514Z,98863.00
2022-10-11T01:05:35.492Z,98863.00
2022-10-11T01:05:45.598Z,98863.00
2022-10-11T01:05:55.491Z,98861.00
2022-10-11T01:06:06.010Z,98859.00
2022-10-11T01:06:15.570Z,98863.00
2022-10-11T01:06:26.951Z,98865.00
2022-10-11T01:06:36.932Z,98863.00
2022-10-11T01:06:45.505Z,98865.00
2022-10-11T01:06:55.521Z,98865.00
2022-10-11T01:07:05.471Z,98867.00
2022-10-11T01:07:15.482Z,98865.00
2022-10-11T01:07:26.931Z,98865.00
2022-10-11T01:07:35.484Z,98865.00
2022-10-11T01:07:45.701Z,98869.00
2022-10-11T01:07:56.912Z,98863.00
2022-10-11T01:08:05.483Z,98865.00
2022-10-11T01:08:15.480Z,98867.00
2022-10-11T01:08:25.476Z,98867.00
2022-10-11T01:08:35.480Z,98867.00
2022-10-11T01:08:45.488Z,98867.00
2022-10-11T01:08:56.941Z,98863.00
2022-10-11T01:09:06.920Z,98869.00
2022-10-11T01:09:16.954Z,98865.00
2022-10-11T01:09:25.473Z,98867.00
2022-10-11T01:09:36.921Z,98869.00
2022-10-11T01:09:46.453Z,98869.00
2022-10-11T01:09:55.474Z,98867.00
2022-10-11T01:10:05.484Z,98871.00
2022-10-11T01:10:16.441Z,98869.00
2022-10-11T01:10:26.925Z,98873.00
2022-10-11T01:10:35.892Z,98871.00
2022-10-11T01:10:45.592Z,98871.00
2022-10-11T01:10:55.470Z,98871.00
2022-10-11T01:11:06.405Z,98873.00
2022-10-11T01:11:15.459Z,98873.00
2022-10-11T01:11:26.914Z,98873.00
2022-10-11T01:11:36.884Z,98875.00
2022-10-11T01:11:46.892Z,98877.00
2022-10-11T01:11:56.912Z,98875.00
2022-10-11T01:12:06.914Z,98875.00
2022-10-11T01:12:16.893Z,98875.00
2022-10-11T01:12:25.466Z,98873.00
2022-10-11T01:12:36.902Z,98875.00
2022-10-11T01:12:46.884Z,98875.00
2022-10-11T01:12:56.892Z,98875.00
2022-10-11T01:13:05.432Z,98875.00
2022-10-11T01:13:15.460Z,98873.00
2022-10-11T01:13:26.902Z,98873.00
2022-10-11T01:13:36.396Z,98873.00
2022-10-11T01:13:46.882Z,98873.00
2022-10-11T01:13:55.640Z,98873.00
2022-10-11T01:14:06.913Z,98875.00
2022-10-11T01:14:16.390Z,98875.00
2022-10-11T01:14:25.475Z,98875.00
2022-10-11T01:14:36.124Z,98879.00
2022-10-11T01:14:45.414Z,98877.00
2022-10-11T01:14:56.093Z,98877.00
2022-10-11T01:15:05.444Z,98877.00
2022-10-11T01:15:16.002Z,98879.00
2022-10-11T01:15:25.412Z,98879.00
2022-10-11T01:15:36.139Z,98881.00
2022-10-11T01:15:46.862Z,98883.00
2022-10-11T01:15:55.456Z,98877.00
2022-10-11T01:16:05.844Z,98877.00
2022-10-11T01:16:16.381Z,98881.00
2022-10-11T01:16:25.416Z,98881.00
2022-10-11T01:16:36.874Z,98879.00
2022-10-11T01:16:46.413Z,98881.00
2022-10-11T01:16:55.423Z,98881.00
2022-10-11T01:17:05.415Z,98885.00
2022-10-11T01:17:15.544Z,98883.00
2022-10-11T01:17:26.846Z,98883.00
2022-10-11T01:17:36.244Z,98881.00
2022-10-11T01:17:46.854Z,98883.00
2022-10-11T01:17:55.403Z,98881.00
2022-10-11T01:18:06.864Z,98881.00
2022-10-11T01:18:16.390Z,98883.00
2022-10-11T01:18:25.404Z,98883.00
2022-10-11T01:18:35.428Z,98881.00
2022-10-11T01:18:45.394Z,98881.00
2022-10-11T01:18:56.374Z,98885.00
2022-10-11T01:19:06.853Z,98883.00
2022-10-11T01:19:16.845Z,98883.00
2022-10-11T01:19:25.420Z,98881.00
2022-10-11T01:19:35.399Z,98883.00
2022-10-11T01:19:45.393Z,98881.00
2022-10-11T01:19:55.424Z,98885.00
2022-10-11T01:20:05.394Z,98881.00
2022-10-11T01:20:16.245Z,98879.00
2022-10-11T01:20:26.824Z,98881.00
2022-10-11T01:20:35.446Z,98881.00
2022-10-11T01:20:45.382Z,98885.00
2022-10-11T01:20:56.844Z,98885.00
2022-10-11T01:21:05.399Z,98883.00
2022-10-11T01:21:16.886Z,98885.00
2022-10-11T01:21:25.388Z,98885.00
2022-10-11T01:21:35.395Z,98885.00
2022-10-11T01:21:45.422Z,98886.00
2022-10-11T01:21:56.836Z,98883.00
2022-10-11T01:22:06.825Z,98885.00
2022-10-11T01:22:15.368Z,98881.00
2022-10-11T01:22:26.830Z,98888.00
2022-10-11T01:22:35.375Z,98881.00
2022-10-11T01:22:45.385Z,98881.00
2022-10-11T01:22:55.382Z,98886.00
2022-10-11T01:23:06.827Z,98883.00
2022-10-11T01:23:16.805Z,98885.00
2022-10-11T01:23:25.364Z,98883.00
2022-10-11T01:23:36.825Z,98886.00
2022-10-11T01:23:46.805Z,98886.00
2022-10-11T01:23:56.842Z,98883.00
2022-10-11T01:24:08.791Z,98883.00
2022-10-11T01:24:15.383Z,98886.00
2022-10-11T01:24:26.833Z,98885.00
2022-10-11T01:24:35.363Z,98883.00
2022-10-11T01:24:45.384Z,98881.00
2022-10-11T01:24:55.367Z,98883.00
2022-10-11T01:25:05.354Z,98885.00
2022-10-11T01:25:16.834Z,98888.00
2022-10-11T01:25:25.347Z,98885.00
2022-10-11T01:25:36.807Z,98886.00
2022-10-11T01:25:45.345Z,98888.00
2022-10-11T01:25:55.348Z,98890.00
2022-10-11T01:26:07.257Z,98886.00
2022-10-11T01:26:15.335Z,98886.00
2022-10-11T01:26:25.423Z,98888.00
2022-10-11T01:26:35.348Z,98886.00
2022-10-11T01:26:45.350Z,98888.00
2022-10-11T01:26:56.116Z,98885.00
2022-10-11T01:27:06.786Z,98888.00
2022-10-11T01:27:15.346Z,98890.00
2022-10-11T01:27:25.326Z,98890.00
2022-10-11T01:27:36.793Z,98890.00
2022-10-11T01:27:46.775Z,98894.00
2022-10-11T01:27:55.666Z,98890.00
2022-10-11T01:28:05.330Z,98888.00
2022-10-11T01:28:16.855Z,98890.00
2022-10-11T01:28:25.358Z,98888.00
2022-10-11T01:28:35.409Z,98890.00
2022-10-11T01:28:46.838Z,98888.00
2022-10-11T01:28:55.936Z,98892.00
2022-10-11T01:29:05.919Z,98892.00
2022-10-11T01:29:15.946Z,98894.00
2022-10-11T01:29:26.760Z,98892.00
2022-10-11T01:29:35.335Z,98892.00
2022-10-11T01:29:45.958Z,98892.00
2022-10-11T01:29:55.596Z,98888.00
2022-10-11T01:30:05.308Z,98892.00
2022-10-11T01:30:15.366Z,98890.00
2022-10-11T01:30:25.308Z,98894.00
2022-10-11T01:30:35.926Z,98892.00
2022-10-11T01:30:45.296Z,98894.00
2022-10-11T01:30:56.795Z,98894.00
2022-10-11T01:31:05.287Z,98890.00
2022-10-11T01:31:15.969Z,98890.00
2022-10-11T01:31:26.739Z,98894.00
2022-10-11T01:31:47.456Z,98892.00
2022-10-11T01:31:56.859Z,98894.00
2022-10-11T01:32:07.093Z,98894.00
2022-10-11T01:32:16.836Z,98894.00
2022-10-11T01:32:26.852Z,98890.00
2022-10-11T01:32:36.837Z,98892.00
2022-10-11T01:32:46.874Z,98892.00
2022-10-11T01:32:58.277Z,98892.00
2022-10-11T01:33:08.276Z,98892.00
2022-10-11T01:33:18.333Z,98892.00
2022-10-11T01:33:26.967Z,98894.00
2022-10-11T01:33:36.839Z,98892.00
2022-10-11T01:33:46.864Z,98890.00
2022-10-11T01:33:56.827Z,98890.00
2022-10-11T01:34:06.830Z,98894.00
2022-10-11T01:34:16.839Z,98892.00
2022-10-11T01:34:28.305Z,98890.00
2022-10-11T01:34:37.206Z,98894.00
2022-10-11T01:34:48.268Z,98894.00
2022-10-11T01:34:58.278Z,98892.00
2022-10-11T01:35:08.271Z,98894.00
2022-10-11T01:35:17.618Z,98894.00
2022-10-11T01:35:26.815Z,98892.00
2022-10-11T01:35:38.278Z,98894.00
2022-10-11T01:35:46.834Z,98894.00
2022-10-11T01:35:56.835Z,98890.00
2022-10-11T01:36:07.314Z,98892.00
2022-10-11T01:36:16.868Z,98894.00
2022-10-11T01:36:26.835Z,98892.00
2022-10-11T01:36:38.267Z,98890.00
2022-10-11T01:36:48.258Z,98894.00
2022-10-11T01:36:58.331Z,98894.00
2022-10-11T01:37:08.248Z,98892.00
2022-10-11T01:37:18.258Z,98894.00
2022-10-11T01:37:27.749Z,98892.00
2022-10-11T01:37:38.260Z,98892.00
2022-10-11T01:37:46.791Z,98894.00
2022-10-11T01:37:57.624Z,98894.00
2022-10-11T01:38:06.868Z,98892.00
2022-10-11T01:38:18.229Z,98892.00
2022-10-11T01:38:26.828Z,98894.00
2022-10-11T01:38:38.292Z,98888.00
2022-10-11T01:38:48.239Z,98890.00
2022-10-11T01:38:57.531Z,98890.00
2022-10-11T01:39:06.898Z,98892.00
2022-10-11T01:39:16.780Z,98892.00
2022-10-11T01:39:27.737Z,98890.00
2022-10-11T01:39:36.898Z,98890.00
2022-10-11T01:39:46.777Z,98890.00
2022-10-11T01:39:56.798Z,98892.00
2022-10-11T01:40:08.228Z,98896.00
2022-10-11T01:40:16.908Z,98894.00
2022-10-11T01:40:26.780Z,98894.00
2022-10-11T01:40:36.822Z,98896.00
2022-10-11T01:40:48.248Z,98898.00
2022-10-11T01:40:58.210Z,98900.00
2022-10-11T01:41:08.223Z,98896.00
2022-10-11T01:41:18.219Z,98892.00
2022-10-11T01:41:28.219Z,98898.00
2022-10-11T01:41:38.241Z,98896.00
2022-10-11T01:41:48.291Z,98898.00
2022-10-11T01:41:58.237Z,98898.00
2022-10-11T01:42:08.229Z,98900.00
2022-10-11T01:42:16.750Z,98898.00
2022-10-11T01:42:28.222Z,98898.00
2022-10-11T01:42:38.200Z,98900.00
2022-10-11T01:42:46.781Z,98898.00
2022-10-11T01:42:57.666Z,98898.00
2022-10-11T01:43:06.784Z,98900.00
2022-10-11T01:43:18.218Z,98900.00
2022-10-11T01:43:26.759Z,98900.00
2022-10-11T01:43:36.754Z,98900.00
2022-10-11T01:43:48.480Z,98900.00
2022-10-11T01:43:56.764Z,98902.00
2022-10-11T01:44:07.540Z,98902.00
2022-10-11T01:44:16.790Z,98900.00
2022-10-11T01:44:28.230Z,98900.00
2022-10-11T01:44:38.189Z,98902.00
2022-10-11T01:44:48.200Z,98902.00
2022-10-11T01:44:56.740Z,98902.00
2022-10-11T01:45:06.790Z,98900.00
2022-10-11T01:45:16.770Z,98900.00
2022-10-11T01:45:28.214Z,98904.00
2022-10-11T01:45:38.185Z,98904.00
2022-10-11T01:45:46.753Z,98902.00
2022-10-11T01:45:56.751Z,98906.00
2022-10-11T01:46:08.567Z,98904.00
2022-10-11T01:46:16.741Z,98904.00
2022-10-11T01:46:27.734Z,98904.00
2022-10-11T01:46:36.731Z,98906.00
2022-10-11T01:46:46.779Z,98906.00
2022-10-11T01:46:56.790Z,98904.00
2022-10-11T01:47:08.161Z,98910.00
2022-10-11T01:47:16.731Z,98906.00
2022-10-11T01:47:26.740Z,98904.00
2022-10-11T01:47:38.210Z,98908.00
2022-10-11T01:47:46.781Z,98904.00
2022-10-11T01:47:56.750Z,98906.00
2022-10-11T01:48:06.771Z,98904.00
2022-10-11T01:48:16.790Z,98906.00
2022-10-11T01:48:28.186Z,98908.00
2022-10-11T01:48:36.860Z,98906.00
2022-10-11T01:48:46.790Z,98906.00
2022-10-11T01:48:56.830Z,98908.00
2022-10-11T01:49:06.699Z,98908.00
2022-10-11T01:49:16.730Z,98908.00
2022-10-11T01:49:27.541Z,98910.00
2022-10-11T01:49:36.760Z,98908.00
2022-10-11T01:49:48.143Z,98906.00
2022-10-11T01:49:56.720Z,98910.00
2022-10-11T01:50:08.175Z,98908.00
2022-10-11T01:50:16.701Z,98908.00
2022-10-11T01:50:26.719Z,98908.00
2022-10-11T01:50:36.711Z,98910.00
2022-10-11T01:50:46.712Z,98908.00
2022-10-11T01:50:58.161Z,98910.00
2022-10-11T01:51:06.891Z,98908.00
2022-10-11T01:51:18.151Z,98908.00
2022-10-11T01:51:28.140Z,98908.00
2022-10-11T01:51:38.182Z,98908.00
2022-10-11T01:51:47.783Z,98906.00
2022-10-11T01:51:58.165Z,98908.00
2022-10-11T01:52:08.152Z,98910.00
2022-10-11T01:52:17.661Z,98908.00
2022-10-11T01:52:26.689Z,98908.00
2022-10-11T01:52:38.143Z,98906.00
2022-10-11T01:52:48.152Z,98906.00
2022-10-11T01:52:56.702Z,98906.00
2022-10-11T01:53:08.162Z,98906.00
2022-10-11T01:53:18.132Z,98908.00
2022-10-11T01:53:28.184Z,98904.00
2022-10-11T01:53:38.123Z,98908.00
2022-10-11T01:53:46.696Z,98906.00
2022-10-11T01:53:56.694Z,98906.00
2022-10-11T01:54:07.604Z,98906.00
2022-10-11T01:54:18.141Z,98908.00
2022-10-11T01:54:39.277Z,98906.00
2022-10-11T01:55:03.884Z,98908.00
2022-10-11T01:55:08.108Z,98904.00
2022-10-11T01:55:09.265Z,98906.00
2022-10-11T01:55:09.958Z,98908.00
2022-10-11T01:55:17.163Z,98906.00
2022-10-11T01:55:27.102Z,98910.00
2022-10-11T01:55:37.152Z,98912.00
2022-10-11T01:55:47.153Z,98912.00
2022-10-11T01:55:57.183Z,98908.00
2022-10-11T01:56:07.817Z,98908.00
2022-10-11T01:56:17.101Z,98908.00
2022-10-11T01:56:28.553Z,98908.00
2022-10-11T01:56:38.552Z,98908.00
2022-10-11T01:56:48.062Z,98908.00
2022-10-11T01:56:57.189Z,98910.00
2022-10-11T01:57:08.543Z,98912.00
2022-10-11T01:57:18.073Z,98910.00
2022-10-11T01:57:28.552Z,98910.00
2022-10-11T01:57:38.572Z,98912.00